sensor_id;sensor_type;location;lat;lon;timestamp;P1;durP1;ratioP1;P2;durP2;ratioP2
77586;SDS011;66744;49.716;17.158;2024-02-14T00:02:45;14.73;;;8.45;;
77586;SDS011;66744;49.716;17.158;2024-02-14T00:05:50;17.85;;;8.48;;
77586;SDS011;66744;49.716;17.158;2024-02-14T00:08:53;16.10;;;9.80;;
77586;SDS011;66744;49.716;17.158;2024-02-14T00:11:54;18.90;;;10.32;;
77586;SDS011;66744;49.716;17.158;2024-02-14T00:14:55;17.20;;;11.60;;
77586;SDS011;66744;49.716;17.158;2024-02-14T00:17:56;19.67;;;9.75;;
77586;SDS011;66744;49.716;17.158;2024-02-14T00:20:58;21.05;;;9.95;;
77586;SDS011;66744;49.716;17.158;2024-02-14T00:23:59;12.88;;;8.90;;
77586;SDS011;66744;49.716;17.158;2024-02-14T00:27:03;16.23;;;9.75;;
77586;SDS011;66744;49.716;17.158;2024-02-14T00:30:05;16.77;;;10.18;;
77586;SDS011;66744;49.716;17.158;2024-02-14T00:33:06;13.40;;;8.23;;
77586;SDS011;66744;49.716;17.158;2024-02-14T00:36:07;14.88;;;9.85;;
77586;SDS011;66744;49.716;17.158;2024-02-14T00:39:09;13.88;;;8.77;;
77586;SDS011;66744;49.716;17.158;2024-02-14T00:42:10;14.40;;;10.13;;
77586;SDS011;66744;49.716;17.158;2024-02-14T00:45:11;12.85;;;7.88;;
77586;SDS011;66744;49.716;17.158;2024-02-14T00:48:13;11.88;;;8.13;;
77586;SDS011;66744;49.716;17.158;2024-02-14T00:51:14;16.00;;;7.80;;
77586;SDS011;66744;49.716;17.158;2024-02-14T00:54:15;16.67;;;10.55;;
77586;SDS011;66744;49.716;17.158;2024-02-14T01:00:18;15.50;;;8.77;;
77586;SDS011;66744;49.716;17.158;2024-02-14T01:03:20;17.33;;;11.00;;
77586;SDS011;66744;49.716;17.158;2024-02-14T01:06:21;18.60;;;10.60;;
77586;SDS011;66744;49.716;17.158;2024-02-14T01:09:22;16.95;;;9.85;;
77586;SDS011;66744;49.716;17.158;2024-02-14T01:12:23;15.77;;;9.98;;
77586;SDS011;66744;49.716;17.158;2024-02-14T01:15:24;17.08;;;8.90;;
77586;SDS011;66744;49.716;17.158;2024-02-14T01:18:26;15.88;;;10.18;;
77586;SDS011;66744;49.716;17.158;2024-02-14T01:21:27;15.35;;;9.85;;
77586;SDS011;66744;49.716;17.158;2024-02-14T01:24:28;18.25;;;11.23;;
77586;SDS011;66744;49.716;17.158;2024-02-14T01:27:31;20.23;;;11.98;;
77586;SDS011;66744;49.716;17.158;2024-02-14T01:30:32;18.13;;;10.15;;
77586;SDS011;66744;49.716;17.158;2024-02-14T01:33:33;21.52;;;12.35;;
77586;SDS011;66744;49.716;17.158;2024-02-14T01:36:34;17.35;;;11.38;;
77586;SDS011;66744;49.716;17.158;2024-02-14T01:39:35;16.35;;;11.20;;
77586;SDS011;66744;49.716;17.158;2024-02-14T01:42:37;19.17;;;12.40;;
77586;SDS011;66744;49.716;17.158;2024-02-14T01:45:38;20.40;;;11.02;;
77586;SDS011;66744;49.716;17.158;2024-02-14T01:48:42;19.88;;;12.60;;
77586;SDS011;66744;49.716;17.158;2024-02-14T01:51:44;21.13;;;12.38;;
77586;SDS011;66744;49.716;17.158;2024-02-14T01:54:47;21.63;;;11.38;;
77586;SDS011;66744;49.716;17.158;2024-02-14T01:57:49;18.73;;;13.13;;
77586;SDS011;66744;49.716;17.158;2024-02-14T02:08:33;17.48;;;11.43;;
77586;SDS011;66744;49.716;17.158;2024-02-14T02:11:51;20.27;;;11.90;;
77586;SDS011;66744;49.716;17.158;2024-02-14T02:15:01;22.15;;;13.25;;
77586;SDS011;66744;49.716;17.158;2024-02-14T02:18:05;22.33;;;13.63;;
77586;SDS011;66744;49.716;17.158;2024-02-14T02:21:11;20.52;;;13.15;;
77586;SDS011;66744;49.716;17.158;2024-02-14T02:24:14;22.85;;;14.30;;
77586;SDS011;66744;49.716;17.158;2024-02-14T02:27:15;25.50;;;15.32;;
77586;SDS011;66744;49.716;17.158;2024-02-14T02:30:17;25.83;;;14.18;;
77586;SDS011;66744;49.716;17.158;2024-02-14T02:33:22;21.08;;;12.55;;
77586;SDS011;66744;49.716;17.158;2024-02-14T02:36:24;23.75;;;13.60;;
77586;SDS011;66744;49.716;17.158;2024-02-14T02:39:29;23.42;;;13.38;;
77586;SDS011;66744;49.716;17.158;2024-02-14T02:42:30;22.33;;;14.55;;
77586;SDS011;66744;49.716;17.158;2024-02-14T02:48:37;20.70;;;12.65;;
77586;SDS011;66744;49.716;17.158;2024-02-14T02:54:39;23.45;;;12.30;;
77586;SDS011;66744;49.716;17.158;2024-02-14T02:57:46;20.85;;;12.13;;
77586;SDS011;66744;49.716;17.158;2024-02-14T03:00:49;18.42;;;12.05;;
77586;SDS011;66744;49.716;17.158;2024-02-14T03:03:50;20.90;;;11.65;;
77586;SDS011;66744;49.716;17.158;2024-02-14T03:06:51;19.63;;;12.25;;
77586;SDS011;66744;49.716;17.158;2024-02-14T03:09:55;22.20;;;13.00;;
77586;SDS011;66744;49.716;17.158;2024-02-14T03:13:00;21.85;;;12.32;;
77586;SDS011;66744;49.716;17.158;2024-02-14T03:16:02;20.85;;;12.05;;
77586;SDS011;66744;49.716;17.158;2024-02-14T03:19:10;20.40;;;12.65;;
77586;SDS011;66744;49.716;17.158;2024-02-14T03:22:12;22.60;;;12.60;;
77586;SDS011;66744;49.716;17.158;2024-02-14T03:25:16;22.27;;;14.10;;
77586;SDS011;66744;49.716;17.158;2024-02-14T03:28:18;19.23;;;12.25;;
77586;SDS011;66744;49.716;17.158;2024-02-14T03:31:23;19.45;;;12.07;;
77586;SDS011;66744;49.716;17.158;2024-02-14T03:34:28;21.38;;;13.95;;
77586;SDS011;66744;49.716;17.158;2024-02-14T03:37:31;21.58;;;13.05;;
77586;SDS011;66744;49.716;17.158;2024-02-14T03:40:34;19.17;;;12.13;;
77586;SDS011;66744;49.716;17.158;2024-02-14T03:43:39;19.83;;;12.23;;
77586;SDS011;66744;49.716;17.158;2024-02-14T03:46:43;19.02;;;11.55;;
77586;SDS011;66744;49.716;17.158;2024-02-14T03:49:44;16.95;;;9.85;;
77586;SDS011;66744;49.716;17.158;2024-02-14T03:52:47;20.02;;;11.90;;
77586;SDS011;66744;49.716;17.158;2024-02-14T03:55:50;21.40;;;11.60;;
77586;SDS011;66744;49.716;17.158;2024-02-14T03:58:56;19.50;;;12.45;;
77586;SDS011;66744;49.716;17.158;2024-02-14T04:01:59;22.33;;;11.55;;
77586;SDS011;66744;49.716;17.158;2024-02-14T04:05:01;23.25;;;14.75;;
77586;SDS011;66744;49.716;17.158;2024-02-14T04:08:06;22.80;;;12.82;;
77586;SDS011;66744;49.716;17.158;2024-02-14T04:11:11;21.42;;;13.93;;
77586;SDS011;66744;49.716;17.158;2024-02-14T04:14:17;23.55;;;14.07;;
77586;SDS011;66744;49.716;17.158;2024-02-14T04:17:18;22.20;;;14.00;;
77586;SDS011;66744;49.716;17.158;2024-02-14T04:20:21;22.98;;;13.85;;
77586;SDS011;66744;49.716;17.158;2024-02-14T04:23:23;20.85;;;14.43;;
77586;SDS011;66744;49.716;17.158;2024-02-14T04:26:28;21.40;;;13.07;;
77586;SDS011;66744;49.716;17.158;2024-02-14T04:29:30;21.95;;;12.85;;
77586;SDS011;66744;49.716;17.158;2024-02-14T04:32:37;17.25;;;11.63;;
77586;SDS011;66744;49.716;17.158;2024-02-14T04:41:50;17.83;;;9.43;;
77586;SDS011;66744;49.716;17.158;2024-02-14T04:44:55;22.23;;;10.63;;
77586;SDS011;66744;49.716;17.158;2024-02-14T04:48:05;19.10;;;11.25;;
77586;SDS011;66744;49.716;17.158;2024-02-14T04:51:06;18.20;;;10.73;;
77586;SDS011;66744;49.716;17.158;2024-02-14T04:54:08;21.15;;;12.07;;
77586;SDS011;66744;49.716;17.158;2024-02-14T04:57:09;21.48;;;13.00;;
77586;SDS011;66744;49.716;17.158;2024-02-14T05:00:12;23.75;;;13.40;;
77586;SDS011;66744;49.716;17.158;2024-02-14T05:03:22;24.65;;;12.88;;
77586;SDS011;66744;49.716;17.158;2024-02-14T05:06:25;19.48;;;11.40;;
77586;SDS011;66744;49.716;17.158;2024-02-14T05:09:28;21.63;;;12.10;;
77586;SDS011;66744;49.716;17.158;2024-02-14T05:12:33;21.63;;;12.23;;
77586;SDS011;66744;49.716;17.158;2024-02-14T05:15:37;20.83;;;10.60;;
77586;SDS011;66744;49.716;17.158;2024-02-14T05:18:39;20.50;;;10.73;;
77586;SDS011;66744;49.716;17.158;2024-02-14T05:21:40;19.27;;;11.25;;
77586;SDS011;66744;49.716;17.158;2024-02-14T05:24:45;21.58;;;10.45;;
77586;SDS011;66744;49.716;17.158;2024-02-14T05:27:47;18.92;;;9.93;;
77586;SDS011;66744;49.716;17.158;2024-02-14T05:30:48;19.30;;;11.15;;
77586;SDS011;66744;49.716;17.158;2024-02-14T05:33:50;19.42;;;10.73;;
77586;SDS011;66744;49.716;17.158;2024-02-14T05:36:54;19.38;;;10.48;;
77586;SDS011;66744;49.716;17.158;2024-02-14T05:39:58;17.92;;;10.50;;
77586;SDS011;66744;49.716;17.158;2024-02-14T05:42:59;20.75;;;11.93;;
77586;SDS011;66744;49.716;17.158;2024-02-14T05:46:02;17.58;;;10.32;;
77586;SDS011;66744;49.716;17.158;2024-02-14T05:49:03;19.60;;;10.38;;
77586;SDS011;66744;49.716;17.158;2024-02-14T05:55:07;16.85;;;11.25;;
77586;SDS011;66744;49.716;17.158;2024-02-14T05:58:10;18.17;;;11.35;;
77586;SDS011;66744;49.716;17.158;2024-02-14T06:01:16;16.50;;;9.50;;
77586;SDS011;66744;49.716;17.158;2024-02-14T06:04:22;19.08;;;10.98;;
77586;SDS011;66744;49.716;17.158;2024-02-14T06:07:32;19.85;;;10.85;;
77586;SDS011;66744;49.716;17.158;2024-02-14T06:10:35;21.20;;;11.93;;
77586;SDS011;66744;49.716;17.158;2024-02-14T06:13:36;19.48;;;11.95;;
77586;SDS011;66744;49.716;17.158;2024-02-14T06:19:41;21.30;;;10.63;;
77586;SDS011;66744;49.716;17.158;2024-02-14T06:22:44;19.60;;;11.13;;
77586;SDS011;66744;49.716;17.158;2024-02-14T06:25:46;20.35;;;12.23;;
77586;SDS011;66744;49.716;17.158;2024-02-14T06:28:51;22.92;;;13.55;;
77586;SDS011;66744;49.716;17.158;2024-02-14T06:31:55;25.67;;;13.93;;
77586;SDS011;66744;49.716;17.158;2024-02-14T06:34:57;36.33;;;16.60;;
77586;SDS011;66744;49.716;17.158;2024-02-14T06:38:05;34.33;;;19.00;;
77586;SDS011;66744;49.716;17.158;2024-02-14T06:41:07;31.35;;;14.18;;
77586;SDS011;66744;49.716;17.158;2024-02-14T06:44:08;27.40;;;16.50;;
77586;SDS011;66744;49.716;17.158;2024-02-14T06:50:12;27.02;;;13.77;;
77586;SDS011;66744;49.716;17.158;2024-02-14T06:56:14;23.42;;;13.18;;
77586;SDS011;66744;49.716;17.158;2024-02-14T06:59:16;23.75;;;13.88;;
77586;SDS011;66744;49.716;17.158;2024-02-14T07:02:20;21.02;;;13.27;;
77586;SDS011;66744;49.716;17.158;2024-02-14T07:05:26;21.23;;;12.65;;
77586;SDS011;66744;49.716;17.158;2024-02-14T07:08:29;21.33;;;13.70;;
77586;SDS011;66744;49.716;17.158;2024-02-14T07:11:30;17.80;;;11.48;;
77586;SDS011;66744;49.716;17.158;2024-02-14T07:14:33;20.48;;;11.95;;
77586;SDS011;66744;49.716;17.158;2024-02-14T07:17:36;23.45;;;13.18;;
77586;SDS011;66744;49.716;17.158;2024-02-14T07:20:37;19.48;;;13.02;;
77586;SDS011;66744;49.716;17.158;2024-02-14T07:23:39;19.75;;;14.52;;
77586;SDS011;66744;49.716;17.158;2024-02-14T07:26:40;24.65;;;14.57;;
77586;SDS011;66744;49.716;17.158;2024-02-14T07:29:42;22.42;;;13.50;;
77586;SDS011;66744;49.716;17.158;2024-02-14T07:32:45;22.90;;;13.55;;
77586;SDS011;66744;49.716;17.158;2024-02-14T07:35:47;22.42;;;13.18;;
77586;SDS011;66744;49.716;17.158;2024-02-14T07:38:49;22.95;;;11.70;;
77586;SDS011;66744;49.716;17.158;2024-02-14T07:41:54;16.02;;;11.20;;
77586;SDS011;66744;49.716;17.158;2024-02-14T07:44:58;16.27;;;10.40;;
77586;SDS011;66744;49.716;17.158;2024-02-14T07:48:04;16.10;;;10.88;;
77586;SDS011;66744;49.716;17.158;2024-02-14T07:51:10;22.15;;;12.60;;
77586;SDS011;66744;49.716;17.158;2024-02-14T07:54:34;19.58;;;11.80;;
77586;SDS011;66744;49.716;17.158;2024-02-14T07:57:36;21.65;;;11.57;;
77586;SDS011;66744;49.716;17.158;2024-02-14T08:00:40;20.50;;;13.45;;
77586;SDS011;66744;49.716;17.158;2024-02-14T08:03:42;20.85;;;11.55;;
77586;SDS011;66744;49.716;17.158;2024-02-14T08:06:47;20.77;;;14.05;;
77586;SDS011;66744;49.716;17.158;2024-02-14T08:09:54;21.23;;;12.05;;
77586;SDS011;66744;49.716;17.158;2024-02-14T08:12:58;20.85;;;11.48;;
77586;SDS011;66744;49.716;17.158;2024-02-14T08:16:02;27.45;;;13.77;;
77586;SDS011;66744;49.716;17.158;2024-02-14T08:19:04;22.60;;;13.80;;
77586;SDS011;66744;49.716;17.158;2024-02-14T08:22:06;22.27;;;12.60;;
77586;SDS011;66744;49.716;17.158;2024-02-14T08:25:10;18.88;;;12.48;;
77586;SDS011;66744;49.716;17.158;2024-02-14T08:28:18;24.02;;;13.38;;
77586;SDS011;66744;49.716;17.158;2024-02-14T08:31:21;20.48;;;13.40;;
77586;SDS011;66744;49.716;17.158;2024-02-14T08:34:23;22.30;;;14.80;;
77586;SDS011;66744;49.716;17.158;2024-02-14T08:37:25;18.23;;;13.00;;
77586;SDS011;66744;49.716;17.158;2024-02-14T08:40:26;21.60;;;13.98;;
77586;SDS011;66744;49.716;17.158;2024-02-14T08:43:28;18.25;;;12.43;;
77586;SDS011;66744;49.716;17.158;2024-02-14T08:46:38;24.73;;;13.13;;
77586;SDS011;66744;49.716;17.158;2024-02-14T08:49:41;20.52;;;12.73;;
77586;SDS011;66744;49.716;17.158;2024-02-14T08:52:43;16.88;;;10.65;;
77586;SDS011;66744;49.716;17.158;2024-02-14T08:55:44;24.08;;;12.48;;
77586;SDS011;66744;49.716;17.158;2024-02-14T08:58:47;20.45;;;12.25;;
77586;SDS011;66744;49.716;17.158;2024-02-14T09:01:50;20.55;;;12.63;;
77586;SDS011;66744;49.716;17.158;2024-02-14T09:04:52;22.40;;;13.30;;
77586;SDS011;66744;49.716;17.158;2024-02-14T09:07:54;19.10;;;13.15;;
77586;SDS011;66744;49.716;17.158;2024-02-14T09:10:57;22.45;;;12.38;;
77586;SDS011;66744;49.716;17.158;2024-02-14T09:14:01;19.15;;;12.10;;
77586;SDS011;66744;49.716;17.158;2024-02-14T09:17:07;23.85;;;13.73;;
77586;SDS011;66744;49.716;17.158;2024-02-14T09:20:09;24.40;;;14.40;;
77586;SDS011;66744;49.716;17.158;2024-02-14T09:23:12;23.83;;;15.07;;
77586;SDS011;66744;49.716;17.158;2024-02-14T09:26:16;21.77;;;15.93;;
77586;SDS011;66744;49.716;17.158;2024-02-14T09:29:17;22.50;;;14.38;;
77586;SDS011;66744;49.716;17.158;2024-02-14T09:32:20;27.02;;;18.08;;
77586;SDS011;66744;49.716;17.158;2024-02-14T09:35:21;30.23;;;18.65;;
77586;SDS011;66744;49.716;17.158;2024-02-14T09:38:24;28.75;;;15.65;;
77586;SDS011;66744;49.716;17.158;2024-02-14T09:41:26;29.92;;;17.42;;
77586;SDS011;66744;49.716;17.158;2024-02-14T09:44:45;25.88;;;15.23;;
77586;SDS011;66744;49.716;17.158;2024-02-14T09:47:47;27.27;;;16.05;;
77586;SDS011;66744;49.716;17.158;2024-02-14T09:50:51;29.40;;;17.55;;
77586;SDS011;66744;49.716;17.158;2024-02-14T09:53:54;30.02;;;18.65;;
77586;SDS011;66744;49.716;17.158;2024-02-14T09:56:57;29.50;;;18.45;;
77586;SDS011;66744;49.716;17.158;2024-02-14T10:00:01;29.33;;;16.45;;
77586;SDS011;66744;49.716;17.158;2024-02-14T10:03:12;29.73;;;17.90;;
77586;SDS011;66744;49.716;17.158;2024-02-14T10:06:13;30.02;;;19.10;;
77586;SDS011;66744;49.716;17.158;2024-02-14T10:09:18;32.42;;;18.88;;
77586;SDS011;66744;49.716;17.158;2024-02-14T10:12:26;30.42;;;17.33;;
77586;SDS011;66744;49.716;17.158;2024-02-14T10:15:34;31.10;;;19.88;;
77586;SDS011;66744;49.716;17.158;2024-02-14T10:18:39;30.23;;;17.38;;
77586;SDS011;66744;49.716;17.158;2024-02-14T10:21:43;34.53;;;18.35;;
77586;SDS011;66744;49.716;17.158;2024-02-14T10:24:57;37.35;;;20.77;;
77586;SDS011;66744;49.716;17.158;2024-02-14T10:28:03;32.80;;;17.77;;
77586;SDS011;66744;49.716;17.158;2024-02-14T10:31:06;32.08;;;18.40;;
77586;SDS011;66744;49.716;17.158;2024-02-14T10:34:15;30.83;;;19.27;;
77586;SDS011;66744;49.716;17.158;2024-02-14T10:37:24;33.92;;;18.65;;
77586;SDS011;66744;49.716;17.158;2024-02-14T10:40:28;34.65;;;17.27;;
77586;SDS011;66744;49.716;17.158;2024-02-14T10:43:32;35.17;;;19.25;;
77586;SDS011;66744;49.716;17.158;2024-02-14T10:46:36;36.55;;;20.42;;
77586;SDS011;66744;49.716;17.158;2024-02-14T10:49:40;31.90;;;17.50;;
77586;SDS011;66744;49.716;17.158;2024-02-14T10:52:45;32.75;;;19.95;;
77586;SDS011;66744;49.716;17.158;2024-02-14T10:55:49;30.10;;;18.65;;
77586;SDS011;66744;49.716;17.158;2024-02-14T10:58:59;34.67;;;20.17;;
77586;SDS011;66744;49.716;17.158;2024-02-14T11:02:07;41.78;;;22.20;;
77586;SDS011;66744;49.716;17.158;2024-02-14T11:05:12;34.80;;;18.65;;
77586;SDS011;66744;49.716;17.158;2024-02-14T11:08:20;40.45;;;21.20;;
77586;SDS011;66744;49.716;17.158;2024-02-14T11:11:24;39.90;;;20.70;;
77586;SDS011;66744;49.716;17.158;2024-02-14T11:14:32;39.20;;;22.20;;
77586;SDS011;66744;49.716;17.158;2024-02-14T11:17:37;39.25;;;20.85;;
77586;SDS011;66744;49.716;17.158;2024-02-14T11:20:39;35.00;;;21.02;;
77586;SDS011;66744;49.716;17.158;2024-02-14T11:27:10;38.25;;;20.50;;
77586;SDS011;66744;49.716;17.158;2024-02-14T11:30:28;37.10;;;21.83;;
77586;SDS011;66744;49.716;17.158;2024-02-14T11:33:36;38.45;;;19.00;;
77586;SDS011;66744;49.716;17.158;2024-02-14T11:36:44;41.67;;;20.92;;
77586;SDS011;66744;49.716;17.158;2024-02-14T11:39:47;42.92;;;22.13;;
77586;SDS011;66744;49.716;17.158;2024-02-14T11:42:49;34.35;;;21.10;;
77586;SDS011;66744;49.716;17.158;2024-02-14T11:45:51;36.50;;;21.80;;
77586;SDS011;66744;49.716;17.158;2024-02-14T11:49:00;39.55;;;20.85;;
77586;SDS011;66744;49.716;17.158;2024-02-14T11:52:10;31.70;;;17.52;;
77586;SDS011;66744;49.716;17.158;2024-02-14T11:55:17;31.60;;;17.92;;
77586;SDS011;66744;49.716;17.158;2024-02-14T11:58:20;30.33;;;17.95;;
77586;SDS011;66744;49.716;17.158;2024-02-14T12:01:25;33.72;;;19.60;;
77586;SDS011;66744;49.716;17.158;2024-02-14T12:04:29;34.13;;;18.67;;
77586;SDS011;66744;49.716;17.158;2024-02-14T12:07:33;33.17;;;18.85;;
77586;SDS011;66744;49.716;17.158;2024-02-14T12:10:42;35.72;;;18.35;;
77586;SDS011;66744;49.716;17.158;2024-02-14T12:13:54;38.33;;;20.15;;
77586;SDS011;66744;49.716;17.158;2024-02-14T12:16:59;36.35;;;20.35;;
77586;SDS011;66744;49.716;17.158;2024-02-14T12:20:08;40.58;;;22.02;;
77586;SDS011;66744;49.716;17.158;2024-02-14T12:23:15;35.72;;;19.08;;
77586;SDS011;66744;49.716;17.158;2024-02-14T12:26:23;37.63;;;20.95;;
77586;SDS011;66744;49.716;17.158;2024-02-14T12:29:25;38.50;;;20.80;;
77586;SDS011;66744;49.716;17.158;2024-02-14T12:32:30;36.88;;;19.60;;
77586;SDS011;66744;49.716;17.158;2024-02-14T12:35:31;28.08;;;17.45;;
77586;SDS011;66744;49.716;17.158;2024-02-14T12:38:39;23.73;;;15.70;;
77586;SDS011;66744;49.716;17.158;2024-02-14T12:41:43;26.00;;;17.48;;
77586;SDS011;66744;49.716;17.158;2024-02-14T12:44:44;28.73;;;16.75;;
77586;SDS011;66744;49.716;17.158;2024-02-14T12:47:50;28.52;;;16.85;;
77586;SDS011;66744;49.716;17.158;2024-02-14T12:50:58;29.10;;;18.70;;
77586;SDS011;66744;49.716;17.158;2024-02-14T12:54:51;29.17;;;17.23;;
77586;SDS011;66744;49.716;17.158;2024-02-14T12:57:52;32.88;;;17.83;;
77586;SDS011;66744;49.716;17.158;2024-02-14T13:01:01;34.25;;;18.55;;
77586;SDS011;66744;49.716;17.158;2024-02-14T13:04:10;30.73;;;18.00;;
77586;SDS011;66744;49.716;17.158;2024-02-14T13:07:12;35.55;;;19.98;;
77586;SDS011;66744;49.716;17.158;2024-02-14T13:10:15;34.53;;;20.63;;
77586;SDS011;66744;49.716;17.158;2024-02-14T13:13:17;33.38;;;20.55;;
77586;SDS011;66744;49.716;17.158;2024-02-14T13:16:18;32.97;;;20.98;;
77586;SDS011;66744;49.716;17.158;2024-02-14T13:19:21;32.03;;;19.63;;
77586;SDS011;66744;49.716;17.158;2024-02-14T13:22:24;29.98;;;15.85;;
77586;SDS011;66744;49.716;17.158;2024-02-14T13:25:29;28.60;;;17.90;;
77586;SDS011;66744;49.716;17.158;2024-02-14T13:28:31;24.95;;;16.27;;
77586;SDS011;66744;49.716;17.158;2024-02-14T13:31:34;26.73;;;17.25;;
77586;SDS011;66744;49.716;17.158;2024-02-14T13:34:37;23.85;;;15.18;;
77586;SDS011;66744;49.716;17.158;2024-02-14T13:37:41;27.95;;;17.25;;
77586;SDS011;66744;49.716;17.158;2024-02-14T13:40:42;21.85;;;15.13;;
77586;SDS011;66744;49.716;17.158;2024-02-14T13:43:46;26.33;;;15.35;;
77586;SDS011;66744;49.716;17.158;2024-02-14T13:46:49;24.70;;;15.38;;
77586;SDS011;66744;49.716;17.158;2024-02-14T13:50:02;23.48;;;14.65;;
77586;SDS011;66744;49.716;17.158;2024-02-14T13:53:06;21.95;;;15.48;;
77586;SDS011;66744;49.716;17.158;2024-02-14T13:56:12;21.70;;;14.25;;
77586;SDS011;66744;49.716;17.158;2024-02-14T14:03:18;23.40;;;13.73;;
77586;SDS011;66744;49.716;17.158;2024-02-14T14:06:24;25.67;;;16.13;;
77586;SDS011;66744;49.716;17.158;2024-02-14T14:09:25;23.13;;;15.25;;
77586;SDS011;66744;49.716;17.158;2024-02-14T14:12:28;23.33;;;14.85;;
77586;SDS011;66744;49.716;17.158;2024-02-14T14:15:31;29.48;;;17.83;;
77586;SDS011;66744;49.716;17.158;2024-02-14T14:18:57;33.42;;;19.15;;
77586;SDS011;66744;49.716;17.158;2024-02-14T14:22:13;27.77;;;17.65;;
77586;SDS011;66744;49.716;17.158;2024-02-14T14:25:34;23.02;;;15.32;;
77586;SDS011;66744;49.716;17.158;2024-02-14T14:28:38;24.50;;;15.00;;
77586;SDS011;66744;49.716;17.158;2024-02-14T14:31:39;21.73;;;14.40;;
77586;SDS011;66744;49.716;17.158;2024-02-14T14:34:44;20.95;;;14.45;;
77586;SDS011;66744;49.716;17.158;2024-02-14T14:37:46;24.17;;;14.35;;
77586;SDS011;66744;49.716;17.158;2024-02-14T14:40:47;24.52;;;14.13;;
77586;SDS011;66744;49.716;17.158;2024-02-14T14:43:51;24.55;;;15.02;;
77586;SDS011;66744;49.716;17.158;2024-02-14T14:46:53;23.08;;;13.55;;
77586;SDS011;66744;49.716;17.158;2024-02-14T14:49:54;25.20;;;15.38;;
77586;SDS011;66744;49.716;17.158;2024-02-14T14:53:00;27.10;;;15.43;;
77586;SDS011;66744;49.716;17.158;2024-02-14T14:56:02;27.88;;;16.15;;
77586;SDS011;66744;49.716;17.158;2024-02-14T14:59:05;22.52;;;15.40;;
77586;SDS011;66744;49.716;17.158;2024-02-14T15:02:07;31.27;;;19.77;;
77586;SDS011;66744;49.716;17.158;2024-02-14T15:05:10;27.30;;;14.60;;
77586;SDS011;66744;49.716;17.158;2024-02-14T15:08:14;36.05;;;23.75;;
77586;SDS011;66744;49.716;17.158;2024-02-14T15:11:19;32.20;;;20.38;;
77586;SDS011;66744;49.716;17.158;2024-02-14T15:14:21;25.48;;;16.42;;
77586;SDS011;66744;49.716;17.158;2024-02-14T15:17:25;30.77;;;17.88;;
77586;SDS011;66744;49.716;17.158;2024-02-14T15:20:30;31.70;;;21.05;;
77586;SDS011;66744;49.716;17.158;2024-02-14T15:23:32;38.22;;;24.60;;
77586;SDS011;66744;49.716;17.158;2024-02-14T15:26:34;40.42;;;24.73;;
77586;SDS011;66744;49.716;17.158;2024-02-14T15:29:51;34.45;;;22.30;;
77586;SDS011;66744;49.716;17.158;2024-02-14T15:33:11;33.67;;;22.30;;
77586;SDS011;66744;49.716;17.158;2024-02-14T15:36:31;34.28;;;18.70;;
77586;SDS011;66744;49.716;17.158;2024-02-14T15:39:33;32.00;;;18.20;;
77586;SDS011;66744;49.716;17.158;2024-02-14T15:42:35;27.92;;;17.88;;
77586;SDS011;66744;49.716;17.158;2024-02-14T15:45:41;32.08;;;19.73;;
77586;SDS011;66744;49.716;17.158;2024-02-14T15:48:43;32.17;;;18.10;;
77586;SDS011;66744;49.716;17.158;2024-02-14T15:51:46;34.72;;;20.60;;
77586;SDS011;66744;49.716;17.158;2024-02-14T15:54:50;32.03;;;19.67;;
77586;SDS011;66744;49.716;17.158;2024-02-14T15:58:04;25.80;;;16.38;;
77586;SDS011;66744;49.716;17.158;2024-02-14T16:01:10;29.17;;;18.50;;
77586;SDS011;66744;49.716;17.158;2024-02-14T16:04:18;32.45;;;18.67;;
77586;SDS011;66744;49.716;17.158;2024-02-14T16:07:22;34.63;;;21.33;;
77586;SDS011;66744;49.716;17.158;2024-02-14T16:10:31;31.90;;;19.27;;
77586;SDS011;66744;49.716;17.158;2024-02-14T16:13:33;31.98;;;18.55;;
77586;SDS011;66744;49.716;17.158;2024-02-14T16:16:37;33.03;;;19.08;;
77586;SDS011;66744;49.716;17.158;2024-02-14T16:19:40;31.20;;;18.90;;
77586;SDS011;66744;49.716;17.158;2024-02-14T16:22:42;29.55;;;16.63;;
77586;SDS011;66744;49.716;17.158;2024-02-14T16:25:44;27.65;;;15.73;;
77586;SDS011;66744;49.716;17.158;2024-02-14T16:28:48;29.63;;;17.92;;
77586;SDS011;66744;49.716;17.158;2024-02-14T16:31:51;29.80;;;17.50;;
77586;SDS011;66744;49.716;17.158;2024-02-14T16:34:53;30.30;;;18.10;;
77586;SDS011;66744;49.716;17.158;2024-02-14T16:37:58;27.90;;;16.83;;
77586;SDS011;66744;49.716;17.158;2024-02-14T16:40:59;27.20;;;15.90;;
77586;SDS011;66744;49.716;17.158;2024-02-14T16:44:02;27.42;;;16.33;;
77586;SDS011;66744;49.716;17.158;2024-02-14T16:47:08;27.70;;;17.45;;
77586;SDS011;66744;49.716;17.158;2024-02-14T16:50:11;31.35;;;18.75;;
77586;SDS011;66744;49.716;17.158;2024-02-14T16:53:12;28.02;;;16.92;;
77586;SDS011;66744;49.716;17.158;2024-02-14T16:56:13;28.13;;;17.13;;
77586;SDS011;66744;49.716;17.158;2024-02-14T16:59:16;26.88;;;15.05;;
77586;SDS011;66744;49.716;17.158;2024-02-14T17:02:17;30.52;;;17.02;;
77586;SDS011;66744;49.716;17.158;2024-02-14T17:05:20;31.85;;;19.25;;
77586;SDS011;66744;49.716;17.158;2024-02-14T17:08:24;27.15;;;17.30;;
77586;SDS011;66744;49.716;17.158;2024-02-14T17:11:27;30.75;;;18.02;;
77586;SDS011;66744;49.716;17.158;2024-02-14T17:14:28;31.40;;;17.08;;
77586;SDS011;66744;49.716;17.158;2024-02-14T17:17:33;34.53;;;19.48;;
77586;SDS011;66744;49.716;17.158;2024-02-14T17:20:37;33.80;;;20.60;;
77586;SDS011;66744;49.716;17.158;2024-02-14T17:23:40;38.67;;;20.70;;
77586;SDS011;66744;49.716;17.158;2024-02-14T17:26:43;36.63;;;21.75;;
77586;SDS011;66744;49.716;17.158;2024-02-14T17:29:45;36.70;;;21.85;;
77586;SDS011;66744;49.716;17.158;2024-02-14T17:32:48;37.10;;;22.98;;
77586;SDS011;66744;49.716;17.158;2024-02-14T17:35:49;37.78;;;21.52;;
77586;SDS011;66744;49.716;17.158;2024-02-14T17:38:51;36.25;;;22.30;;
77586;SDS011;66744;49.716;17.158;2024-02-14T17:41:59;37.33;;;21.55;;
77586;SDS011;66744;49.716;17.158;2024-02-14T17:45:02;33.97;;;22.35;;
77586;SDS011;66744;49.716;17.158;2024-02-14T17:48:06;37.65;;;19.77;;
77586;SDS011;66744;49.716;17.158;2024-02-14T17:51:11;34.20;;;19.52;;
77586;SDS011;66744;49.716;17.158;2024-02-14T17:54:14;34.08;;;21.48;;
77586;SDS011;66744;49.716;17.158;2024-02-14T17:57:18;52.95;;;35.00;;
77586;SDS011;66744;49.716;17.158;2024-02-14T18:00:20;59.67;;;38.13;;
77586;SDS011;66744;49.716;17.158;2024-02-14T18:03:24;42.47;;;23.38;;
77586;SDS011;66744;49.716;17.158;2024-02-14T18:06:32;37.70;;;22.02;;
77586;SDS011;66744;49.716;17.158;2024-02-14T18:09:34;39.13;;;22.88;;
77586;SDS011;66744;49.716;17.158;2024-02-14T18:12:37;40.33;;;24.75;;
77586;SDS011;66744;49.716;17.158;2024-02-14T18:15:41;42.10;;;22.75;;
77586;SDS011;66744;49.716;17.158;2024-02-14T18:18:46;43.75;;;23.42;;
77586;SDS011;66744;49.716;17.158;2024-02-14T18:21:51;41.83;;;25.45;;
77586;SDS011;66744;49.716;17.158;2024-02-14T18:24:53;45.78;;;25.45;;